sensor_id;sensor_type;location;lat;lon;timestamp;temperature;humidity
23744;DHT22;12052;53.478;10.182;2023-07-30T00:00:42;16.00;99.90
23744;DHT22;12052;53.478;10.182;2023-07-30T00:03:08;16.00;99.90
23744;DHT22;12052;53.478;10.182;2023-07-30T00:05:33;16.10;99.90
23744;DHT22;12052;53.478;10.182;2023-07-30T00:07:59;16.10;99.90
23744;DHT22;12052;53.478;10.182;2023-07-30T00:10:25;16.10;99.90
23744;DHT22;12052;53.478;10.182;2023-07-30T00:12:50;16.10;99.90
23744;DHT22;12052;53.478;10.182;2023-07-30T00:15:16;16.10;99.90
23744;DHT22;12052;53.478;10.182;2023-07-30T00:17:42;16.10;99.90
23744;DHT22;12052;53.478;10.182;2023-07-30T00:20:08;16.10;99.90
23744;DHT22;12052;53.478;10.182;2023-07-30T00:22:34;16.10;99.90
23744;DHT22;12052;53.478;10.182;2023-07-30T00:24:59;16.10;99.90
23744;DHT22;12052;53.478;10.182;2023-07-30T00:27:25;16.20;99.90
23744;DHT22;12052;53.478;10.182;2023-07-30T00:29:51;16.10;99.90
23744;DHT22;12052;53.478;10.182;2023-07-30T00:32:16;16.10;99.90
23744;DHT22;12052;53.478;10.182;2023-07-30T00:34:43;16.10;99.90
23744;DHT22;12052;53.478;10.182;2023-07-30T00:37:08;16.20;99.90
23744;DHT22;12052;53.478;10.182;2023-07-30T00:39:34;16.10;99.90
23744;DHT22;12052;53.478;10.182;2023-07-30T00:42:00;16.10;99.90
23744;DHT22;12052;53.478;10.182;2023-07-30T00:44:25;16.10;99.90
23744;DHT22;12052;53.478;10.182;2023-07-30T00:46:51;16.10;99.90
23744;DHT22;12052;53.478;10.182;2023-07-30T00:49:17;16.10;99.90
23744;DHT22;12052;53.478;10.182;2023-07-30T00:51:42;16.10;99.90
23744;DHT22;12052;53.478;10.182;2023-07-30T00:54:09;16.10;99.90
23744;DHT22;12052;53.478;10.182;2023-07-30T00:56:35;16.10;99.90
23744;DHT22;12052;53.478;10.182;2023-07-30T00:59:01;16.10;99.90
23744;DHT22;12052;53.478;10.182;2023-07-30T01:01:27;16.10;99.90
23744;DHT22;12052;53.478;10.182;2023-07-30T01:03:54;16.10;99.90
23744;DHT22;12052;53.478;10.182;2023-07-30T01:06:19;16.10;99.90
23744;DHT22;12052;53.478;10.182;2023-07-30T01:08:46;16.10;99.90
23744;DHT22;12052;53.478;10.182;2023-07-30T01:11:13;16.10;99.90
23744;DHT22;12052;53.478;10.182;2023-07-30T01:13:40;16.20;99.90
23744;DHT22;12052;53.478;10.182;2023-07-30T01:16:06;16.20;99.90
23744;DHT22;12052;53.478;10.182;2023-07-30T01:18:32;16.20;99.90
23744;DHT22;12052;53.478;10.182;2023-07-30T01:20:58;16.20;99.90
23744;DHT22;12052;53.478;10.182;2023-07-30T01:23:25;16.20;99.90
23744;DHT22;12052;53.478;10.182;2023-07-30T01:26:08;16.20;99.90
23744;DHT22;12052;53.478;10.182;2023-07-30T01:28:42;16.20;99.90
23744;DHT22;12052;53.478;10.182;2023-07-30T01:31:09;16.20;99.90
23744;DHT22;12052;53.478;10.182;2023-07-30T01:33:39;16.20;99.90
23744;DHT22;12052;53.478;10.182;2023-07-30T01:36:07;16.20;99.90
23744;DHT22;12052;53.478;10.182;2023-07-30T01:38:34;16.20;99.90
23744;DHT22;12052;53.478;10.182;2023-07-30T01:41:00;16.20;99.90
23744;DHT22;12052;53.478;10.182;2023-07-30T01:43:26;16.10;99.90
23744;DHT22;12052;53.478;10.182;2023-07-30T01:45:51;16.10;99.90
23744;DHT22;12052;53.478;10.182;2023-07-30T01:48:17;16.10;99.90
23744;DHT22;12052;53.478;10.182;2023-07-30T01:50:42;16.00;99.90
23744;DHT22;12052;53.478;10.182;2023-07-30T01:53:08;16.00;99.90
23744;DHT22;12052;53.478;10.182;2023-07-30T01:55:34;16.00;99.90
23744;DHT22;12052;53.478;10.182;2023-07-30T01:57:59;15.90;99.90
23744;DHT22;12052;53.478;10.182;2023-07-30T02:00:25;15.90;99.90
23744;DHT22;12052;53.478;10.182;2023-07-30T02:02:50;15.90;99.90
23744;DHT22;12052;53.478;10.182;2023-07-30T02:05:16;15.90;99.90
23744;DHT22;12052;53.478;10.182;2023-07-30T02:07:41;15.80;99.90
23744;DHT22;12052;53.478;10.182;2023-07-30T02:10:07;15.90;99.90
23744;DHT22;12052;53.478;10.182;2023-07-30T02:12:33;15.80;99.90
23744;DHT22;12052;53.478;10.182;2023-07-30T02:14:58;15.80;99.90
23744;DHT22;12052;53.478;10.182;2023-07-30T02:17:24;15.80;99.90
23744;DHT22;12052;53.478;10.182;2023-07-30T02:19:49;15.80;99.90
23744;DHT22;12052;53.478;10.182;2023-07-30T02:22:15;15.80;99.90
23744;DHT22;12052;53.478;10.182;2023-07-30T02:24:41;15.70;99.90
23744;DHT22;12052;53.478;10.182;2023-07-30T02:27:06;15.70;99.90
23744;DHT22;12052;53.478;10.182;2023-07-30T02:29:32;15.80;99.90
23744;DHT22;12052;53.478;10.182;2023-07-30T02:31:57;15.70;99.90
23744;DHT22;12052;53.478;10.182;2023-07-30T02:34:25;15.80;99.90
23744;DHT22;12052;53.478;10.182;2023-07-30T02:36:50;15.80;99.90
23744;DHT22;12052;53.478;10.182;2023-07-30T02:39:16;15.80;99.90
23744;DHT22;12052;53.478;10.182;2023-07-30T02:41:41;15.80;99.90
23744;DHT22;12052;53.478;10.182;2023-07-30T02:44:07;15.70;99.90
23744;DHT22;12052;53.478;10.182;2023-07-30T02:46:32;15.70;99.90
23744;DHT22;12052;53.478;10.182;2023-07-30T02:48:58;15.70;99.90
23744;DHT22;12052;53.478;10.182;2023-07-30T02:51:23;15.70;99.90
23744;DHT22;12052;53.478;10.182;2023-07-30T02:53:52;15.70;99.90
23744;DHT22;12052;53.478;10.182;2023-07-30T02:56:18;15.70;99.90
23744;DHT22;12052;53.478;10.182;2023-07-30T02:58:44;15.70;99.90
23744;DHT22;12052;53.478;10.182;2023-07-30T03:01:09;15.70;99.90
23744;DHT22;12052;53.478;10.182;2023-07-30T03:03:35;15.70;99.90
23744;DHT22;12052;53.478;10.182;2023-07-30T03:06:00;15.70;99.90
23744;DHT22;12052;53.478;10.182;2023-07-30T03:08:26;15.60;99.90
23744;DHT22;12052;53.478;10.182;2023-07-30T03:10:52;15.60;99.90
23744;DHT22;12052;53.478;10.182;2023-07-30T03:13:17;15.60;99.90
23744;DHT22;12052;53.478;10.182;2023-07-30T03:15:43;15.60;99.90
23744;DHT22;12052;53.478;10.182;2023-07-30T03:18:09;15.50;99.90
23744;DHT22;12052;53.478;10.182;2023-07-30T03:20:34;15.50;99.90
23744;DHT22;12052;53.478;10.182;2023-07-30T03:23:00;15.50;99.90
23744;DHT22;12052;53.478;10.182;2023-07-30T03:25:25;15.50;99.90
23744;DHT22;12052;53.478;10.182;2023-07-30T03:27:51;15.50;99.90
23744;DHT22;12052;53.478;10.182;2023-07-30T03:30:17;15.50;99.90
23744;DHT22;12052;53.478;10.182;2023-07-30T03:32:42;15.50;99.90
23744;DHT22;12052;53.478;10.182;2023-07-30T03:35:08;15.40;99.90
23744;DHT22;12052;53.478;10.182;2023-07-30T03:37:33;15.40;99.90
23744;DHT22;12052;53.478;10.182;2023-07-30T03:39:59;15.40;99.90
23744;DHT22;12052;53.478;10.182;2023-07-30T03:42:25;15.40;99.90
23744;DHT22;12052;53.478;10.182;2023-07-30T03:44:50;15.30;99.90
23744;DHT22;12052;53.478;10.182;2023-07-30T03:47:16;15.30;99.90
23744;DHT22;12052;53.478;10.182;2023-07-30T03:49:41;15.30;99.90
23744;DHT22;12052;53.478;10.182;2023-07-30T03:52:07;15.30;99.90
23744;DHT22;12052;53.478;10.182;2023-07-30T03:54:33;15.30;99.90
23744;DHT22;12052;53.478;10.182;2023-07-30T03:56:58;15.20;99.90
23744;DHT22;12052;53.478;10.182;2023-07-30T03:59:24;15.20;99.90
23744;DHT22;12052;53.478;10.182;2023-07-30T04:01:49;15.20;99.90
23744;DHT22;12052;53.478;10.182;2023-07-30T04:04:15;15.20;99.90
23744;DHT22;12052;53.478;10.182;2023-07-30T04:06:40;15.20;99.90
23744;DHT22;12052;53.478;10.182;2023-07-30T04:09:06;15.20;99.90
23744;DHT22;12052;53.478;10.182;2023-07-30T04:11:31;15.20;99.90
23744;DHT22;12052;53.478;10.182;2023-07-30T04:13:57;15.20;99.90
23744;DHT22;12052;53.478;10.182;2023-07-30T04:16:23;15.20;99.90
23744;DHT22;12052;53.478;10.182;2023-07-30T04:18:48;15.20;99.90
23744;DHT22;12052;53.478;10.182;2023-07-30T04:21:14;15.20;99.90
23744;DHT22;12052;53.478;10.182;2023-07-30T04:23:40;15.20;99.90
23744;DHT22;12052;53.478;10.182;2023-07-30T04:26:06;15.30;99.90
23744;DHT22;12052;53.478;10.182;2023-07-30T04:28:32;15.30;99.90
23744;DHT22;12052;53.478;10.182;2023-07-30T04:30:58;15.30;99.90
23744;DHT22;12052;53.478;10.182;2023-07-30T04:33:23;15.30;99.90
23744;DHT22;12052;53.478;10.182;2023-07-30T04:35:49;15.30;99.90
23744;DHT22;12052;53.478;10.182;2023-07-30T04:38:14;15.30;99.90
23744;DHT22;12052;53.478;10.182;2023-07-30T04:40:40;15.40;99.90
23744;DHT22;12052;53.478;10.182;2023-07-30T04:43:06;15.40;99.90
23744;DHT22;12052;53.478;10.182;2023-07-30T04:45:31;15.40;99.90
23744;DHT22;12052;53.478;10.182;2023-07-30T04:47:57;15.40;99.90
23744;DHT22;12052;53.478;10.182;2023-07-30T04:50:22;15.40;99.90
23744;DHT22;12052;53.478;10.182;2023-07-30T04:52:48;15.50;99.90
23744;DHT22;12052;53.478;10.182;2023-07-30T04:55:14;15.50;99.90
23744;DHT22;12052;53.478;10.182;2023-07-30T04:57:39;15.50;99.90
23744;DHT22;12052;53.478;10.182;2023-07-30T05:00:06;15.60;99.90
23744;DHT22;12052;53.478;10.182;2023-07-30T05:02:32;15.60;99.90
23744;DHT22;12052;53.478;10.182;2023-07-30T05:04:58;15.70;99.90
23744;DHT22;12052;53.478;10.182;2023-07-30T05:07:23;15.70;99.90
23744;DHT22;12052;53.478;10.182;2023-07-30T05:09:49;15.80;99.90
23744;DHT22;12052;53.478;10.182;2023-07-30T05:12:14;15.90;99.90
23744;DHT22;12052;53.478;10.182;2023-07-30T05:14:40;16.00;99.90
23744;DHT22;12052;53.478;10.182;2023-07-30T05:17:06;16.00;99.90
23744;DHT22;12052;53.478;10.182;2023-07-30T05:19:31;16.00;99.90
23744;DHT22;12052;53.478;10.182;2023-07-30T05:21:57;16.10;99.90
23744;DHT22;12052;53.478;10.182;2023-07-30T05:24:25;16.10;99.90
23744;DHT22;12052;53.478;10.182;2023-07-30T05:26:50;16.20;99.90
23744;DHT22;12052;53.478;10.182;2023-07-30T05:29:16;16.20;99.90
23744;DHT22;12052;53.478;10.182;2023-07-30T05:31:41;16.20;99.90
23744;DHT22;12052;53.478;10.182;2023-07-30T05:34:07;16.20;99.90
23744;DHT22;12052;53.478;10.182;2023-07-30T05:36:32;16.30;99.90
23744;DHT22;12052;53.478;10.182;2023-07-30T05:38:58;16.30;99.90
23744;DHT22;12052;53.478;10.182;2023-07-30T05:41:23;16.40;99.90
23744;DHT22;12052;53.478;10.182;2023-07-30T05:43:49;16.30;99.90
23744;DHT22;12052;53.478;10.182;2023-07-30T05:46:15;16.40;99.90
23744;DHT22;12052;53.478;10.182;2023-07-30T05:48:40;16.40;99.90
23744;DHT22;12052;53.478;10.182;2023-07-30T05:51:06;16.40;99.90
23744;DHT22;12052;53.478;10.182;2023-07-30T05:53:31;16.40;99.90
23744;DHT22;12052;53.478;10.182;2023-07-30T05:55:57;16.50;99.90
23744;DHT22;12052;53.478;10.182;2023-07-30T05:58:22;16.50;99.90
23744;DHT22;12052;53.478;10.182;2023-07-30T06:00:48;16.50;99.90
23744;DHT22;12052;53.478;10.182;2023-07-30T06:03:14;16.60;99.90
23744;DHT22;12052;53.478;10.182;2023-07-30T06:05:40;16.60;99.90
23744;DHT22;12052;53.478;10.182;2023-07-30T06:08:07;16.70;99.90
23744;DHT22;12052;53.478;10.182;2023-07-30T06:10:37;16.80;99.90
23744;DHT22;12052;53.478;10.182;2023-07-30T06:13:04;16.90;99.90
23744;DHT22;12052;53.478;10.182;2023-07-30T06:15:31;16.90;99.90
23744;DHT22;12052;53.478;10.182;2023-07-30T06:17:57;17.00;99.90
23744;DHT22;12052;53.478;10.182;2023-07-30T06:20:23;17.00;99.90
23744;DHT22;12052;53.478;10.182;2023-07-30T06:22:48;17.10;99.90
23744;DHT22;12052;53.478;10.182;2023-07-30T06:25:14;17.20;99.90
23744;DHT22;12052;53.478;10.182;2023-07-30T06:27:39;17.20;99.90
23744;DHT22;12052;53.478;10.182;2023-07-30T06:30:05;17.30;99.90
23744;DHT22;12052;53.478;10.182;2023-07-30T06:32:31;17.30;99.90
23744;DHT22;12052;53.478;10.182;2023-07-30T06:34:57;17.40;99.90
23744;DHT22;12052;53.478;10.182;2023-07-30T06:37:23;17.50;99.90
23744;DHT22;12052;53.478;10.182;2023-07-30T06:39:49;17.60;99.90
23744;DHT22;12052;53.478;10.182;2023-07-30T06:42:15;17.60;99.90
23744;DHT22;12052;53.478;10.182;2023-07-30T06:44:40;17.60;99.90
23744;DHT22;12052;53.478;10.182;2023-07-30T06:47:06;17.60;99.90
23744;DHT22;12052;53.478;10.182;2023-07-30T06:49:31;17.60;99.90
23744;DHT22;12052;53.478;10.182;2023-07-30T06:51:59;17.60;99.90
23744;DHT22;12052;53.478;10.182;2023-07-30T06:54:25;17.70;99.90
23744;DHT22;12052;53.478;10.182;2023-07-30T06:56:50;17.60;99.90
23744;DHT22;12052;53.478;10.182;2023-07-30T06:59:16;17.60;99.90
23744;DHT22;12052;53.478;10.182;2023-07-30T07:01:41;17.60;99.90
23744;DHT22;12052;53.478;10.182;2023-07-30T07:04:07;17.70;99.90
23744;DHT22;12052;53.478;10.182;2023-07-30T07:06:33;17.70;99.90
23744;DHT22;12052;53.478;10.182;2023-07-30T07:08:58;17.90;99.90
23744;DHT22;12052;53.478;10.182;2023-07-30T07:11:24;18.00;99.90
23744;DHT22;12052;53.478;10.182;2023-07-30T07:13:49;18.00;99.90
23744;DHT22;12052;53.478;10.182;2023-07-30T07:16:15;18.00;99.90
23744;DHT22;12052;53.478;10.182;2023-07-30T07:18:40;18.10;99.90
23744;DHT22;12052;53.478;10.182;2023-07-30T07:21:07;18.00;99.90
23744;DHT22;12052;53.478;10.182;2023-07-30T07:23:33;18.00;99.90
23744;DHT22;12052;53.478;10.182;2023-07-30T07:25:59;18.10;99.90
23744;DHT22;12052;53.478;10.182;2023-07-30T07:28:24;18.10;99.90
23744;DHT22;12052;53.478;10.182;2023-07-30T07:30:50;18.10;99.90
23744;DHT22;12052;53.478;10.182;2023-07-30T07:33:16;18.10;99.90
23744;DHT22;12052;53.478;10.182;2023-07-30T07:35:41;18.10;99.90
23744;DHT22;12052;53.478;10.182;2023-07-30T07:38:07;18.10;99.90
23744;DHT22;12052;53.478;10.182;2023-07-30T07:40:37;18.20;99.90
23744;DHT22;12052;53.478;10.182;2023-07-30T07:43:05;18.20;99.90
23744;DHT22;12052;53.478;10.182;2023-07-30T07:45:31;18.30;99.90
23744;DHT22;12052;53.478;10.182;2023-07-30T07:47:56;18.30;99.90
23744;DHT22;12052;53.478;10.182;2023-07-30T07:50:22;18.30;99.90
23744;DHT22;12052;53.478;10.182;2023-07-30T07:52:47;18.30;99.90
23744;DHT22;12052;53.478;10.182;2023-07-30T07:55:13;18.30;99.90
23744;DHT22;12052;53.478;10.182;2023-07-30T07:57:39;18.30;99.90
23744;DHT22;12052;53.478;10.182;2023-07-30T08:00:05;18.30;99.90
23744;DHT22;12052;53.478;10.182;2023-07-30T08:02:31;18.40;99.90
23744;DHT22;12052;53.478;10.182;2023-07-30T08:04:57;18.60;99.90
23744;DHT22;12052;53.478;10.182;2023-07-30T08:07:23;18.70;99.90
23744;DHT22;12052;53.478;10.182;2023-07-30T08:09:48;19.00;99.90
23744;DHT22;12052;53.478;10.182;2023-07-30T08:12:16;19.10;99.90
23744;DHT22;12052;53.478;10.182;2023-07-30T08:14:42;19.20;99.90
23744;DHT22;12052;53.478;10.182;2023-07-30T08:17:08;19.10;99.90
23744;DHT22;12052;53.478;10.182;2023-07-30T08:19:33;19.20;99.90
23744;DHT22;12052;53.478;10.182;2023-07-30T08:21:59;19.20;99.90
23744;DHT22;12052;53.478;10.182;2023-07-30T08:24:24;19.10;99.90
23744;DHT22;12052;53.478;10.182;2023-07-30T08:26:50;19.20;99.90
23744;DHT22;12052;53.478;10.182;2023-07-30T08:29:15;19.30;99.90
23744;DHT22;12052;53.478;10.182;2023-07-30T08:31:41;19.40;99.90
23744;DHT22;12052;53.478;10.182;2023-07-30T08:34:07;19.30;99.90
23744;DHT22;12052;53.478;10.182;2023-07-30T08:36:33;19.40;99.90
23744;DHT22;12052;53.478;10.182;2023-07-30T08:38:58;19.60;99.90
23744;DHT22;12052;53.478;10.182;2023-07-30T08:41:24;19.80;99.90
23744;DHT22;12052;53.478;10.182;2023-07-30T08:43:50;19.70;99.90
23744;DHT22;12052;53.478;10.182;2023-07-30T08:46:17;19.80;99.90
23744;DHT22;12052;53.478;10.182;2023-07-30T08:48:43;19.90;99.90
23744;DHT22;12052;53.478;10.182;2023-07-30T08:51:08;20.00;99.90
23744;DHT22;12052;53.478;10.182;2023-07-30T08:53:35;20.10;99.90
23744;DHT22;12052;53.478;10.182;2023-07-30T08:56:01;20.40;99.90
23744;DHT22;12052;53.478;10.182;2023-07-30T08:58:28;20.40;99.90
23744;DHT22;12052;53.478;10.182;2023-07-30T09:00:55;20.50;99.90
23744;DHT22;12052;53.478;10.182;2023-07-30T09:03:23;20.60;99.90
23744;DHT22;12052;53.478;10.182;2023-07-30T09:05:49;20.60;99.90
23744;DHT22;12052;53.478;10.182;2023-07-30T09:08:16;20.50;99.90
23744;DHT22;12052;53.478;10.182;2023-07-30T09:10:43;20.50;99.90
23744;DHT22;12052;53.478;10.182;2023-07-30T09:13:08;20.70;99.90
23744;DHT22;12052;53.478;10.182;2023-07-30T09:15:38;20.80;99.90
23744;DHT22;12052;53.478;10.182;2023-07-30T09:18:07;21.00;99.90
23744;DHT22;12052;53.478;10.182;2023-07-30T09:20:41;21.20;99.90
23744;DHT22;12052;53.478;10.182;2023-07-30T09:23:08;21.10;99.90
23744;DHT22;12052;53.478;10.182;2023-07-30T09:25:35;20.90;99.90
23744;DHT22;12052;53.478;10.182;2023-07-30T09:28:00;20.80;99.90
23744;DHT22;12052;53.478;10.182;2023-07-30T09:30:26;20.60;99.90
23744;DHT22;12052;53.478;10.182;2023-07-30T09:32:56;20.40;99.90
23744;DHT22;12052;53.478;10.182;2023-07-30T09:35:23;20.30;99.90
23744;DHT22;12052;53.478;10.182;2023-07-30T09:38:03;20.40;99.90
23744;DHT22;12052;53.478;10.182;2023-07-30T09:40:36;20.40;99.90
23744;DHT22;12052;53.478;10.182;2023-07-30T09:43:05;20.20;99.90
23744;DHT22;12052;53.478;10.182;2023-07-30T09:45:36;20.30;99.90
23744;DHT22;12052;53.478;10.182;2023-07-30T09:48:04;20.40;99.90
23744;DHT22;12052;53.478;10.182;2023-07-30T09:50:36;20.40;99.90
23744;DHT22;12052;53.478;10.182;2023-07-30T09:53:03;20.50;99.90
23744;DHT22;12052;53.478;10.182;2023-07-30T09:55:29;20.50;99.90
23744;DHT22;12052;53.478;10.182;2023-07-30T09:57:55;20.50;99.90
23744;DHT22;12052;53.478;10.182;2023-07-30T10:00:20;20.50;99.90
23744;DHT22;12052;53.478;10.182;2023-07-30T10:02:47;20.60;99.90
23744;DHT22;12052;53.478;10.182;2023-07-30T10:05:16;20.60;99.90
23744;DHT22;12052;53.478;10.182;2023-07-30T10:07:54;20.60;99.90
23744;DHT22;12052;53.478;10.182;2023-07-30T10:10:22;20.70;99.90
23744;DHT22;12052;53.478;10.182;2023-07-30T10:12:51;20.60;99.90
23744;DHT22;12052;53.478;10.182;2023-07-30T10:15:20;20.50;99.90
23744;DHT22;12052;53.478;10.182;2023-07-30T10:17:50;20.50;99.90
23744;DHT22;12052;53.478;10.182;2023-07-30T10:20:25;20.40;99.90
23744;DHT22;12052;53.478;10.182;2023-07-30T10:22:54;20.50;99.90
23744;DHT22;12052;53.478;10.182;2023-07-30T10:25:22;20.60;99.90
23744;DHT22;12052;53.478;10.182;2023-07-30T10:27:50;20.70;99.90
23744;DHT22;12052;53.478;10.182;2023-07-30T10:30:17;20.70;99.90
23744;DHT22;12052;53.478;10.182;2023-07-30T10:35:45;20.70;99.90
23744;DHT22;12052;53.478;10.182;2023-07-30T10:40:40;20.80;99.90
23744;DHT22;12052;53.478;10.182;2023-07-30T10:43:36;20.90;99.90
23744;DHT22;12052;53.478;10.182;2023-07-30T10:46:02;20.90;99.90
23744;DHT22;12052;53.478;10.182;2023-07-30T10:48:35;20.70;99.90
23744;DHT22;12052;53.478;10.182;2023-07-30T10:51:04;20.80;99.90
23744;DHT22;12052;53.478;10.182;2023-07-30T10:53:30;20.90;99.90
23744;DHT22;12052;53.478;10.182;2023-07-30T10:55:58;20.80;99.90
23744;DHT22;12052;53.478;10.182;2023-07-30T10:58:26;20.80;99.90
23744;DHT22;12052;53.478;10.182;2023-07-30T11:00:52;20.60;99.90
23744;DHT22;12052;53.478;10.182;2023-07-30T11:03:18;20.50;99.90
23744;DHT22;12052;53.478;10.182;2023-07-30T11:05:46;20.40;99.90
23744;DHT22;12052;53.478;10.182;2023-07-30T11:08:13;20.30;99.90
23744;DHT22;12052;53.478;10.182;2023-07-30T11:10:44;20.20;99.90
23744;DHT22;12052;53.478;10.182;2023-07-30T11:13:10;20.30;99.90
23744;DHT22;12052;53.478;10.182;2023-07-30T11:15:43;20.30;99.90
23744;DHT22;12052;53.478;10.182;2023-07-30T11:18:10;20.30;99.90
23744;DHT22;12052;53.478;10.182;2023-07-30T11:20:36;20.40;99.90
23744;DHT22;12052;53.478;10.182;2023-07-30T11:23:02;20.40;99.90
23744;DHT22;12052;53.478;10.182;2023-07-30T11:25:28;20.40;99.90
23744;DHT22;12052;53.478;10.182;2023-07-30T11:27:54;20.60;99.90
23744;DHT22;12052;53.478;10.182;2023-07-30T11:30:19;20.70;99.90
23744;DHT22;12052;53.478;10.182;2023-07-30T11:32:45;21.00;99.90
23744;DHT22;12052;53.478;10.182;2023-07-30T11:35:11;21.30;99.90
23744;DHT22;12052;53.478;10.182;2023-07-30T11:37:39;21.50;99.90
23744;DHT22;12052;53.478;10.182;2023-07-30T11:40:09;21.80;99.90
23744;DHT22;12052;53.478;10.182;2023-07-30T11:42:35;22.00;99.90
23744;DHT22;12052;53.478;10.182;2023-07-30T11:45:21;21.90;99.90
23744;DHT22;12052;53.478;10.182;2023-07-30T11:47:47;21.60;99.90
23744;DHT22;12052;53.478;10.182;2023-07-30T11:50:13;21.50;99.90
23744;DHT22;12052;53.478;10.182;2023-07-30T11:52:55;21.30;99.90
23744;DHT22;12052;53.478;10.182;2023-07-30T11:55:21;21.10;99.90
23744;DHT22;12052;53.478;10.182;2023-07-30T11:57:47;21.10;99.90
23744;DHT22;12052;53.478;10.182;2023-07-30T12:00:13;21.10;99.90
23744;DHT22;12052;53.478;10.182;2023-07-30T12:02:39;21.10;99.90
23744;DHT22;12052;53.478;10.182;2023-07-30T12:05:05;21.20;99.90
23744;DHT22;12052;53.478;10.182;2023-07-30T12:07:32;21.60;99.90
23744;DHT22;12052;53.478;10.182;2023-07-30T12:10:09;21.90;99.90
23744;DHT22;12052;53.478;10.182;2023-07-30T12:12:36;22.10;99.90
23744;DHT22;12052;53.478;10.182;2023-07-30T12:15:10;22.10;99.90
23744;DHT22;12052;53.478;10.182;2023-07-30T12:17:35;22.20;99.90
23744;DHT22;12052;53.478;10.182;2023-07-30T12:20:01;22.20;99.90
23744;DHT22;12052;53.478;10.182;2023-07-30T12:22:32;22.10;99.90
23744;DHT22;12052;53.478;10.182;2023-07-30T12:24:59;22.10;99.90
23744;DHT22;12052;53.478;10.182;2023-07-30T12:27:25;21.80;99.90
23744;DHT22;12052;53.478;10.182;2023-07-30T12:29:51;21.60;99.90
23744;DHT22;12052;53.478;10.182;2023-07-30T12:32:16;21.50;99.90
23744;DHT22;12052;53.478;10.182;2023-07-30T12:34:42;21.70;99.90
23744;DHT22;12052;53.478;10.182;2023-07-30T12:37:07;21.60;99.90
23744;DHT22;12052;53.478;10.182;2023-07-30T12:39:34;21.90;99.90
23744;DHT22;12052;53.478;10.182;2023-07-30T12:42:00;22.00;99.90
23744;DHT22;12052;53.478;10.182;2023-07-30T12:44:26;22.10;99.90
23744;DHT22;12052;53.478;10.182;2023-07-30T12:46:51;22.00;99.90
23744;DHT22;12052;53.478;10.182;2023-07-30T12:49:17;22.00;99.90
23744;DHT22;12052;53.478;10.182;2023-07-30T12:51:43;22.20;99.90
23744;DHT22;12052;53.478;10.182;2023-07-30T12:54:09;22.40;99.90
23744;DHT22;12052;53.478;10.182;2023-07-30T12:56:34;22.50;99.90
23744;DHT22;12052;53.478;10.182;2023-07-30T12:59:00;22.70;99.90
23744;DHT22;12052;53.478;10.182;2023-07-30T13:01:26;22.90;99.90
23744;DHT22;12052;53.478;10.182;2023-07-30T13:03:51;23.00;99.90
23744;DHT22;12052;53.478;10.182;2023-07-30T13:06:20;23.00;99.90
23744;DHT22;12052;53.478;10.182;2023-07-30T13:08:46;22.90;99.90
23744;DHT22;12052;53.478;10.182;2023-07-30T13:11:11;23.00;99.90
23744;DHT22;12052;53.478;10.182;2023-07-30T13:13:37;22.80;99.90
23744;DHT22;12052;53.478;10.182;2023-07-30T13:16:03;22.60;99.90
23744;DHT22;12052;53.478;10.182;2023-07-30T13:18:29;22.10;99.90
23744;DHT22;12052;53.478;10.182;2023-07-30T13:20:54;21.90;99.90
23744;DHT22;12052;53.478;10.182;2023-07-30T13:23:20;21.60;99.90
23744;DHT22;12052;53.478;10.182;2023-07-30T13:25:46;21.50;99.90
23744;DHT22;12052;53.478;10.182;2023-07-30T13:28:11;21.20;99.90
23744;DHT22;12052;53.478;10.182;2023-07-30T13:30:37;19.50;99.90
23744;DHT22;12052;53.478;10.182;2023-07-30T13:33:02;18.20;99.90
23744;DHT22;12052;53.478;10.182;2023-07-30T13:35:30;17.60;99.90
23744;DHT22;12052;53.478;10.182;2023-07-30T13:37:56;16.80;99.90
23744;DHT22;12052;53.478;10.182;2023-07-30T13:40:22;16.40;99.90
23744;DHT22;12052;53.478;10.182;2023-07-30T13:42:47;16.30;99.90
23744;DHT22;12052;53.478;10.182;2023-07-30T13:45:13;16.10;99.90
23744;DHT22;12052;53.478;10.182;2023-07-30T13:47:38;16.10;99.90
23744;DHT22;12052;53.478;10.182;2023-07-30T13:50:04;15.90;99.90
23744;DHT22;12052;53.478;10.182;2023-07-30T13:52:30;15.90;99.90
23744;DHT22;12052;53.478;10.182;2023-07-30T13:54:56;15.70;99.90
23744;DHT22;12052;53.478;10.182;2023-07-30T13:57:25;15.50;99.90
23744;DHT22;12052;53.478;10.182;2023-07-30T13:59:51;15.50;99.90
23744;DHT22;12052;53.478;10.182;2023-07-30T14:02:17;15.40;99.90
23744;DHT22;12052;53.478;10.182;2023-07-30T14:04:43;15.40;99.90
23744;DHT22;12052;53.478;10.182;2023-07-30T14:07:08;15.50;99.90
23744;DHT22;12052;53.478;10.182;2023-07-30T14:09:34;15.50;99.90
23744;DHT22;12052;53.478;10.182;2023-07-30T14:12:05;15.50;99.90
23744;DHT22;12052;53.478;10.182;2023-07-30T14:14:31;15.50;99.90
23744;DHT22;12052;53.478;10.182;2023-07-30T14:16:57;15.60;99.90
23744;DHT22;12052;53.478;10.182;2023-07-30T14:19:22;15.60;99.90
23744;DHT22;12052;53.478;10.182;2023-07-30T14:21:48;15.70;99.90
23744;DHT22;12052;53.478;10.182;2023-07-30T14:24:14;15.90;99.90
23744;DHT22;12052;53.478;10.182;2023-07-30T14:26:40;16.10;99.90
23744;DHT22;12052;53.478;10.182;2023-07-30T14:29:05;16.40;99.90
23744;DHT22;12052;53.478;10.182;2023-07-30T14:31:31;16.60;99.90
23744;DHT22;12052;53.478;10.182;2023-07-30T14:33:56;16.70;99.90
23744;DHT22;12052;53.478;10.182;2023-07-30T14:36:23;16.80;99.90
23744;DHT22;12052;53.478;10.182;2023-07-30T14:38:48;17.00;99.90
23744;DHT22;12052;53.478;10.182;2023-07-30T14:41:14;17.10;99.90
23744;DHT22;12052;53.478;10.182;2023-07-30T14:43:39;17.20;99.90
23744;DHT22;12052;53.478;10.182;2023-07-30T14:46:05;17.40;99.90
23744;DHT22;12052;53.478;10.182;2023-07-30T14:48:32;17.70;99.90
23744;DHT22;12052;53.478;10.182;2023-07-30T14:50:57;18.00;99.90
23744;DHT22;12052;53.478;10.182;2023-07-30T14:53:24;18.10;99.90
23744;DHT22;12052;53.478;10.182;2023-07-30T14:55:49;18.20;99.90
23744;DHT22;12052;53.478;10.182;2023-07-30T14:58:15;18.30;99.90
23744;DHT22;12052;53.478;10.182;2023-07-30T15:00:41;18.40;99.90
23744;DHT22;12052;53.478;10.182;2023-07-30T15:03:07;18.30;99.90
23744;DHT22;12052;53.478;10.182;2023-07-30T15:05:32;18.40;99.90
23744;DHT22;12052;53.478;10.182;2023-07-30T15:07:59;18.30;99.90
23744;DHT22;12052;53.478;10.182;2023-07-30T15:10:24;18.30;99.90
23744;DHT22;12052;53.478;10.182;2023-07-30T15:12:50;18.30;99.90
23744;DHT22;12052;53.478;10.182;2023-07-30T15:15:16;18.40;99.90